Strona główna
METAR-TAF:

METAR-TAF

Lotnisko :

Sidney-Richland Municipal Airport

Sidney, Montana, Stany Zjednoczone

Szerokość geograficzna: 47-42N, Długość geograficzna: 104-12W, wysokość: 605 m

Aktualna obserwacja pogody

Raport powstał 38 minut temu, godzina 23:56 UTC
Wiatr 10 kt od zachodnio-południowy zachód
Temperatura 7°C
Wilgotność 57%
Ciśnienie 1008 hPa
Widzialność: 16.1 km
bezchmurnie

METAR: KSDY 222356Z AUTO 24010KT 10SM CLR 07/M01 A2976 RMK AO2 SLP477 T00721011 10100 20072 56005

czas: 17:34 (00:34 UTC)

Prognoza

Raport powstał 58 minut temu, godzina 23:36 UTC
Prognoza ważna od 23 godzina 00 UTC do 23 godzina 24 UTC
Wiatr 10 kt od zachód
Widzialność: 10 km
Mało chmury na wysokości 12000 ft
Od 23 godzina 0200 UTC
Wiatr 10 kt od zachód
Widzialność: 10 km
bezchmurnie
Od 23 godzina 0500 UTC
Wiatr 11 kt od zachód
Widzialność: 10 km
bezchmurnie

TAF: KSDY 222336Z 2300/2324 26010KT P6SM FEW120 FM230200 28010KT P6SM SKC WS020/29040KT FM230500 28011KT P6SM SKC

Obserwacja i prognoza pogody dla ponad 4000 lotnisk (raport METAR i TAF).

Dostępne stacje oznaczono żółtymi i czerwonymi punktami na mapie.

Najedź kursorem aby zobaczyć nazwę stacji.

Kliknij aby zobaczyć obserwacje i prognozy pogody.

Aby zmienić mapę: kliknij na zielony przycisk z czarnym krzyżykiem, aby powiększyć; na zielony przycisk z myślnikiem, aby pomniejszyć; na zielone strzałki, aby przejść do map sąsiednich.


METAR-TAF: